Time;durP1;ratioP1;P1;durP2;ratioP2;P2;SDS_P1;SDS_P2;PMS_P1;PMS_P2;Temp;Humidity;BMP_temperature;BMP_pressure;BME280_temperature;BME280_humidity;BME280_pressure;Samples;Min_cycle;Max_cycle;Signal;HPM_P1;HPM_P2
2022/05/16 00:02:07;;;;;;;;;;;;;;;;;;4404981;29;20075;-74
2022/05/16 00:04:17;;;;;;;4.10;1.38;;;;;;;;;;4405473;29;19923;-74
2022/05/16 00:06:28;;;;;;;2.43;1.20;;;;;;;;;;4404263;28;20032;-75
2022/05/16 00:08:38;;;;;;;3.60;1.33;;;;;;;;;;4405569;29;20037;-75
2022/05/16 00:10:49;;;;;;;2.87;1.30;;;;;;;;;;4404142;28;20596;-74
2022/05/16 00:13:01;;;;;;;2.90;1.27;;;;;;;;;;4411981;29;20037;-74
2022/05/16 00:15:13;;;;;;;3.38;1.40;;;;;;;;;;4405977;29;20047;-74
2022/05/16 00:17:24;;;;;;;4.05;1.50;;;;;;;;;;4404629;29;20040;-74
2022/05/16 00:19:35;;;;;;;4.13;1.53;;;;;;;;;;4404738;29;20490;-75
2022/05/16 00:21:45;;;;;;;3.37;1.50;;;;;;;;;;4404988;29;20466;-74
2022/05/16 00:23:55;;;;;;;3.30;1.10;;;;;;;;;;4403468;29;20047;-74
2022/05/16 00:26:06;;;;;;;3.13;1.30;;;;;;;;;;4404123;28;20050;-74
2022/05/16 00:28:16;;;;;;;2.97;1.50;;;;;;;;;;4405359;29;20075;-75
2022/05/16 00:30:27;;;;;;;3.00;1.40;;;;;;;;;;4403067;29;20536;-74
2022/05/16 00:32:38;;;;;;;3.53;1.45;;;;;;;;;;4407333;29;21112;-74
2022/05/16 00:34:49;;;;;;;3.53;1.23;;;;;;;;;;4405449;29;20062;-75
2022/05/16 00:36:59;;;;;;;3.70;1.30;;;;;;;;;;4405220;29;20125;-75
2022/05/16 00:39:11;;;;;;;2.13;1.40;;;;;;;;;;4404850;29;20119;-75
2022/05/16 00:41:22;;;;;;;3.60;1.30;;;;;;;;;;4405446;28;20127;-75
2022/05/16 00:43:48;;;;;;;3.87;1.67;;;;;;;;;;4403830;28;20127;-75
2022/05/16 00:45:59;;;;;;;3.90;1.30;;;;;;;;;;4406070;29;20052;-75
2022/05/16 00:48:09;;;;;;;3.40;1.53;;;;;;;;;;4403747;29;29056;-74
2022/05/16 00:50:21;;;;;;;4.00;1.58;;;;;;;;;;4404465;29;20071;-75
2022/05/16 00:52:37;;;;;;;3.63;1.40;;;;;;;;;;4407131;28;20041;-75
2022/05/16 00:54:51;;;;;;;3.03;1.50;;;;;;;;;;4403839;29;20060;-75
2022/05/16 00:57:07;;;;;;;4.32;1.40;;;;;;;;;;4402272;29;20040;-75
2022/05/16 00:59:18;;;;;;;3.78;1.50;;;;;;;;;;4411729;29;20027;-75
2022/05/16 01:06:28;;;;;;;3.33;1.40;;;;;;;;;;4405777;29;20140;-75
2022/05/16 01:08:43;;;;;;;3.38;1.35;;;;;;;;;;4404491;29;20116;-75
2022/05/16 01:10:59;;;;;;;4.13;1.23;;;;;;;;;;4404292;29;20157;-75
2022/05/16 01:13:10;;;;;;;2.42;1.23;;;;;;;;;;4412294;29;20044;-75
2022/05/16 01:15:31;;;;;;;5.63;1.45;;;;;;;;;;4396106;29;20051;-75
2022/05/16 01:17:42;;;;;;;4.30;1.40;;;;;;;;;;4404862;29;20127;-75
2022/05/16 01:19:53;;;;;;;4.30;1.30;;;;;;;;;;4405103;29;38447;-74
2022/05/16 01:22:23;;;;;;;4.37;1.40;;;;;;;;;;4404399;29;20051;-74
2022/05/16 01:24:34;;;;;;;3.47;1.35;;;;;;;;;;4396738;29;20273;-75
2022/05/16 01:26:45;;;;;;;3.85;1.30;;;;;;;;;;4404002;29;20048;-75
2022/05/16 01:28:55;;;;;;;6.07;1.20;;;;;;;;;;4403700;29;23473;-75
2022/05/16 01:31:06;;;;;;;3.73;1.30;;;;;;;;;;4411935;29;20040;-74
2022/05/16 01:33:17;;;;;;;2.23;1.10;;;;;;;;;;4404316;29;20493;-74
2022/05/16 01:35:28;;;;;;;;;;;;;;;;;;4418767;28;20126;-75
2022/05/16 01:40:08;;;;;;;4.28;1.40;;;;;;;;;;4404917;29;20040;-74
2022/05/16 01:42:18;;;;;;;3.25;1.40;;;;;;;;;;4403742;29;20608;-75
2022/05/16 01:44:29;;;;;;;3.20;1.20;;;;;;;;;;4402044;29;20040;-74
2022/05/16 01:46:40;;;;;;;4.83;1.50;;;;;;;;;;4405109;28;20048;-74
2022/05/16 01:48:52;;;;;;;4.05;1.50;;;;;;;;;;4403906;28;20965;-75
2022/05/16 01:51:10;;;;;;;3.15;1.15;;;;;;;;;;4403935;28;20036;-75
2022/05/16 01:53:20;;;;;;;3.33;1.33;;;;;;;;;;4403551;29;20036;-74
2022/05/16 01:55:30;;;;;;;2.60;1.30;;;;;;;;;;4390344;29;20032;-75
2022/05/16 01:57:41;;;;;;;3.77;1.50;;;;;;;;;;4402577;28;20502;-75
2022/05/16 01:59:51;;;;;;;3.00;1.17;;;;;;;;;;4393541;29;23476;-75
2022/05/16 02:02:02;;;;;;;2.40;1.10;;;;;;;;;;4402695;29;20032;-75
2022/05/16 02:04:14;;;;;;;2.47;1.20;;;;;;;;;;4402787;28;20106;-74
2022/05/16 02:06:25;;;;;;;4.63;1.40;;;;;;;;;;4404564;28;20529;-75
2022/05/16 02:08:35;;;;;;;3.88;1.40;;;;;;;;;;4402672;28;20504;-75
2022/05/16 02:10:46;;;;;;;4.00;1.40;;;;;;;;;;4404638;29;20501;-75
2022/05/16 02:12:57;;;;;;;3.70;1.40;;;;;;;;;;4404997;29;20797;-74
2022/05/16 02:15:09;;;;;;;3.63;1.33;;;;;;;;;;4403496;28;20051;-74
2022/05/16 02:17:20;;;;;;;2.63;1.20;;;;;;;;;;4404708;29;20039;-75
2022/05/16 02:19:30;;;;;;;5.67;1.57;;;;;;;;;;4402435;29;33486;-75
2022/05/16 02:26:46;;;;;;;4.80;1.35;;;;;;;;;;4402962;29;20047;-74
2022/05/16 02:28:56;;;;;;;3.40;1.42;;;;;;;;;;4402957;29;20044;-74
2022/05/16 02:31:06;;;;;;;2.60;1.17;;;;;;;;;;4402304;28;20618;-75
2022/05/16 02:33:18;;;;;;;2.27;1.20;;;;;;;;;;4403282;29;20040;-75
2022/05/16 02:35:31;;;;;;;3.25;1.10;;;;;;;;;;4403669;28;20052;-75
2022/05/16 02:37:42;;;;;;;3.35;1.40;;;;;;;;;;4404186;29;20036;-75
2022/05/16 02:39:52;;;;;;;3.37;1.37;;;;;;;;;;4406412;28;20040;-74
2022/05/16 02:42:03;;;;;;;6.60;1.60;;;;;;;;;;4403154;29;20091;-74
2022/05/16 02:44:14;;;;;;;5.30;1.45;;;;;;;;;;4403909;29;20047;-75
2022/05/16 02:46:24;;;;;;;4.20;1.50;;;;;;;;;;4401722;29;38896;-74
2022/05/16 02:48:35;;;;;;;3.93;1.47;;;;;;;;;;4402765;29;20041;-74
2022/05/16 02:50:45;;;;;;;2.87;1.30;;;;;;;;;;4403107;29;20020;-74
2022/05/16 02:52:56;;;;;;;3.53;1.43;;;;;;;;;;4400942;29;20482;-75
2022/05/16 02:55:07;;;;;;;3.93;1.33;;;;;;;;;;4405862;29;20032;-74
2022/05/16 02:57:17;;;;;;;4.15;1.35;;;;;;;;;;4402393;29;20147;-74
2022/05/16 02:59:32;;;;;;;3.03;1.43;;;;;;;;;;4410485;29;20040;-75
2022/05/16 03:01:42;;;;;;;4.00;1.40;;;;;;;;;;4400967;29;20704;-75
2022/05/16 03:03:53;;;;;;;3.03;1.20;;;;;;;;;;4402331;29;20044;-75
2022/05/16 03:06:04;;;;;;;4.03;1.50;;;;;;;;;;4404603;29;35391;-75
2022/05/16 03:08:14;;;;;;;3.95;1.38;;;;;;;;;;4405412;29;20033;-74
2022/05/16 03:10:26;;;;;;;3.72;1.30;;;;;;;;;;4406181;29;20592;-74
2022/05/16 03:12:37;;;;;;;4.55;1.67;;;;;;;;;;4405254;29;20040;-75
2022/05/16 03:14:47;;;;;;;4.17;1.37;;;;;;;;;;4405568;29;20052;-75
2022/05/16 03:16:58;;;;;;;2.60;1.20;;;;;;;;;;4405611;28;20039;-75
2022/05/16 03:19:08;;;;;;;4.17;1.20;;;;;;;;;;4405004;29;20048;-75
2022/05/16 03:21:20;;;;;;;3.97;1.20;;;;;;;;;;4407047;28;20099;-74
2022/05/16 03:23:30;;;;;;;;;;;;;;;;;;4392634;29;20144;-74
2022/05/16 03:25:40;;;;;;;3.85;1.30;;;;;;;;;;4404687;29;20066;-75
2022/05/16 03:27:51;;;;;;;2.57;1.07;;;;;;;;;;4405581;29;20056;-74
2022/05/16 03:30:02;;;;;;;2.97;1.40;;;;;;;;;;4406112;29;20040;-75
2022/05/16 03:32:12;;;;;;;2.50;1.10;;;;;;;;;;4408623;29;20035;-75
2022/05/16 03:34:23;;;;;;;2.77;1.50;;;;;;;;;;4405314;29;20289;-75
2022/05/16 03:36:34;;;;;;;2.75;1.20;;;;;;;;;;4413743;29;20044;-75
2022/05/16 03:41:14;;;;;;;3.28;1.35;;;;;;;;;;4412499;28;20036;-74
2022/05/16 03:43:25;;;;;;;3.73;1.50;;;;;;;;;;4412768;29;20569;-75
2022/05/16 03:45:37;;;;;;;4.50;1.60;;;;;;;;;;4404636;29;20067;-75
2022/05/16 03:47:48;;;;;;;3.03;1.20;;;;;;;;;;4404854;29;20044;-74
2022/05/16 03:49:58;;;;;;;3.80;1.40;;;;;;;;;;4404447;29;20041;-74
2022/05/16 03:52:09;;;;;;;2.70;1.10;;;;;;;;;;4407384;28;20039;-75
2022/05/16 03:54:19;;;;;;;2.40;1.23;;;;;;;;;;4404344;29;20028;-75
2022/05/16 03:56:30;;;;;;;2.00;1.10;;;;;;;;;;4403892;29;20520;-74
2022/05/16 03:58:41;;;;;;;3.87;1.30;;;;;;;;;;4405943;29;20041;-74
2022/05/16 04:00:51;;;;;;;3.45;1.30;;;;;;;;;;4405551;29;20267;-74
2022/05/16 04:03:02;;;;;;;3.00;1.30;;;;;;;;;;4403996;29;20414;-74
2022/05/16 04:05:18;;;;;;;5.37;1.60;;;;;;;;;;4403634;29;20051;-74
2022/05/16 04:07:28;;;;;;;3.55;1.48;;;;;;;;;;4404220;29;20143;-74
2022/05/16 04:09:39;;;;;;;3.20;1.60;;;;;;;;;;4404365;28;20482;-75
2022/05/16 04:11:49;;;;;;;3.40;1.30;;;;;;;;;;4405600;29;20040;-74
2022/05/16 04:14:01;;;;;;;5.00;1.17;;;;;;;;;;4404585;28;25799;-74
2022/05/16 04:16:11;;;;;;;;;;;;;;;;;;4403923;29;20037;-74
2022/05/16 04:18:22;;;;;;;3.70;1.38;;;;;;;;;;4402902;29;19919;-74
2022/05/16 04:20:32;;;;;;;3.20;1.20;;;;;;;;;;4404342;29;31606;-75
2022/05/16 04:22:43;;;;;;;2.73;1.23;;;;;;;;;;4411931;29;20032;-74
2022/05/16 04:24:53;;;;;;;2.77;1.37;;;;;;;;;;4405126;29;20040;-75
2022/05/16 04:27:04;;;;;;;3.73;1.40;;;;;;;;;;4403513;28;30458;-74
2022/05/16 04:29:14;;;;;;;5.25;1.35;;;;;;;;;;4389249;29;20120;-74
2022/05/16 04:31:25;;;;;;;3.40;1.20;;;;;;;;;;4405756;29;20414;-74
2022/05/16 04:33:38;;;;;;;3.80;1.50;;;;;;;;;;4403709;29;20075;-75
2022/05/16 04:35:48;;;;;;;3.03;1.27;;;;;;;;;;4391440;29;20041;-75
2022/05/16 04:37:59;;;;;;;3.00;1.10;;;;;;;;;;4404351;28;20072;-75
2022/05/16 04:40:10;;;;;;;3.10;1.30;;;;;;;;;;4404874;28;20083;-75
2022/05/16 04:44:50;;;;;;;3.70;1.60;;;;;;;;;;4404421;29;20042;-74
2022/05/16 04:47:00;;;;;;;2.27;1.20;;;;;;;;;;4405303;29;20100;-74
2022/05/16 04:49:11;;;;;;;2.80;1.13;;;;;;;;;;4404412;29;20869;-75
2022/05/16 04:51:21;;;;;;;4.40;1.43;;;;;;;;;;4406163;29;20035;-75
2022/05/16 04:53:32;;;;;;;4.10;1.57;;;;;;;;;;4403537;29;20644;-75
2022/05/16 04:55:42;;;;;;;3.87;1.20;;;;;;;;;;4402760;29;20700;-74
2022/05/16 04:57:53;;;;;;;3.40;1.20;;;;;;;;;;4417331;28;20087;-75
2022/05/16 05:00:04;;;;;;;3.57;1.47;;;;;;;;;;4402347;29;36740;-75
2022/05/16 05:02:15;;;;;;;2.45;1.08;;;;;;;;;;4404233;29;20041;-75
2022/05/16 05:04:26;;;;;;;4.45;1.48;;;;;;;;;;4404788;29;20044;-75
2022/05/16 05:06:36;;;;;;;3.17;1.40;;;;;;;;;;4404624;29;21955;-75
2022/05/16 05:08:47;;;;;;;3.33;1.43;;;;;;;;;;4419318;28;20040;-75
2022/05/16 05:16:14;;;;;;;4.88;1.73;;;;;;;;;;4404900;29;20036;-75
2022/05/16 05:18:24;;;;;;;2.95;1.17;;;;;;;;;;4403578;29;20958;-75
2022/05/16 05:20:35;;;;;;;4.40;1.73;;;;;;;;;;4401689;29;44631;-75
2022/05/16 05:22:47;;;;;;;4.37;1.30;;;;;;;;;;4404638;29;20048;-75
2022/05/16 05:24:57;;;;;;;3.70;1.17;;;;;;;;;;4412430;29;20036;-76
2022/05/16 05:27:08;;;;;;;4.67;1.43;;;;;;;;;;4402273;29;26330;-75
2022/05/16 05:29:19;;;;;;;5.17;1.50;;;;;;;;;;4402293;28;30419;-75
2022/05/16 05:31:29;;;;;;;3.80;1.35;;;;;;;;;;4396689;29;20036;-74
2022/05/16 05:33:40;;;;;;;4.20;1.53;;;;;;;;;;4403463;28;31267;-75
2022/05/16 05:35:51;;;;;;;3.22;1.15;;;;;;;;;;4404278;28;20032;-76
2022/05/16 05:38:01;;;;;;;3.40;1.27;;;;;;;;;;4403727;29;20043;-75
2022/05/16 05:40:13;;;;;;;3.47;1.30;;;;;;;;;;4407557;28;20040;-76
2022/05/16 05:42:23;;;;;;;3.03;1.20;;;;;;;;;;4405139;28;20048;-76
2022/05/16 05:44:34;;;;;;;3.30;1.27;;;;;;;;;;4402682;29;20136;-76
2022/05/16 05:46:46;;;;;;;1.97;1.20;;;;;;;;;;4404817;29;20037;-76
2022/05/16 05:48:56;;;;;;;5.22;1.67;;;;;;;;;;4404997;29;20036;-76
2022/05/16 05:51:08;;;;;;;3.78;1.35;;;;;;;;;;4403629;28;20037;-76
2022/05/16 05:53:19;;;;;;;5.68;1.40;;;;;;;;;;4403854;29;20063;-76
2022/05/16 05:55:29;;;;;;;4.25;1.50;;;;;;;;;;4403226;29;20032;-76
2022/05/16 05:57:40;;;;;;;4.07;1.47;;;;;;;;;;4402492;29;20044;-76
2022/05/16 05:59:52;;;;;;;3.03;1.30;;;;;;;;;;4403742;29;20124;-77
2022/05/16 06:02:04;;;;;;;3.17;1.40;;;;;;;;;;4412160;29;20038;-76
2022/05/16 06:04:14;;;;;;;3.42;1.17;;;;;;;;;;4404222;28;21099;-77
2022/05/16 06:06:25;;;;;;;2.83;1.10;;;;;;;;;;4403558;28;20059;-77
2022/05/16 06:08:35;;;;;;;3.17;1.30;;;;;;;;;;4404144;29;20028;-76
2022/05/16 06:10:47;;;;;;;4.20;1.17;;;;;;;;;;4404450;28;20085;-77
2022/05/16 06:12:57;;;;;;;;;;;;;;;;;;4412145;29;21105;-78
2022/05/16 06:15:09;;;;;;;3.78;1.40;;;;;;;;;;4402826;28;37549;-77
2022/05/16 06:17:20;;;;;;;3.67;1.30;;;;;;;;;;4403483;28;20043;-78
2022/05/16 06:19:30;;;;;;;5.23;1.67;;;;;;;;;;4403427;28;20116;-78
2022/05/16 06:21:41;;;;;;;2.67;1.27;;;;;;;;;;4403529;29;20047;-78
2022/05/16 06:23:51;;;;;;;4.80;1.47;;;;;;;;;;4403911;28;20062;-78
2022/05/16 06:26:02;;;;;;;4.70;1.60;;;;;;;;;;4404951;29;20036;-78
2022/05/16 06:28:13;;;;;;;4.00;1.20;;;;;;;;;;4403956;29;20035;-78
2022/05/16 06:30:24;;;;;;;4.15;1.38;;;;;;;;;;4405787;28;20048;-78
2022/05/16 06:32:34;;;;;;;4.30;1.37;;;;;;;;;;4406375;29;20040;-78
2022/05/16 06:34:45;;;;;;;4.13;1.33;;;;;;;;;;4403950;29;20045;-78
2022/05/16 06:36:55;;;;;;;3.90;1.20;;;;;;;;;;4403915;29;20037;-78
2022/05/16 06:39:06;;;;;;;2.00;1.40;;;;;;;;;;4402959;29;20096;-78
2022/05/16 06:41:16;;;;;;;4.53;1.50;;;;;;;;;;4403427;29;20047;-79
2022/05/16 06:43:28;;;;;;;3.47;1.17;;;;;;;;;;4407364;29;20075;-79
2022/05/16 06:45:39;;;;;;;3.28;1.30;;;;;;;;;;4419584;28;20040;-79
2022/05/16 06:47:49;;;;;;;3.17;1.50;;;;;;;;;;4404225;29;20048;-80
2022/05/16 06:50:00;;;;;;;4.80;1.50;;;;;;;;;;4404053;29;20036;-79
2022/05/16 06:52:10;;;;;;;4.30;1.60;;;;;;;;;;4404134;29;20076;-80
2022/05/16 06:54:20;;;;;;;2.70;1.20;;;;;;;;;;4404068;29;20616;-78
2022/05/16 06:56:31;;;;;;;3.30;1.27;;;;;;;;;;4405222;29;20528;-78
2022/05/16 06:58:41;;;;;;;3.70;1.23;;;;;;;;;;4404531;29;20064;-77
2022/05/16 07:00:52;;;;;;;3.83;1.33;;;;;;;;;;4404644;29;20052;-80
2022/05/16 07:03:03;;;;;;;3.72;1.40;;;;;;;;;;4407509;29;20616;-78
2022/05/16 07:05:14;;;;;;;3.53;1.48;;;;;;;;;;4404088;28;20032;-78
2022/05/16 07:07:25;;;;;;;3.40;1.50;;;;;;;;;;4404325;29;20048;-78
2022/05/16 07:09:39;;;;;;;4.77;1.50;;;;;;;;;;4403036;29;20277;-78
2022/05/16 07:11:50;;;;;;;2.90;1.23;;;;;;;;;;4401397;29;20036;-77
2022/05/16 07:14:00;;;;;;;3.90;1.40;;;;;;;;;;4403199;29;38020;-79
2022/05/16 07:16:11;;;;;;;6.60;1.92;;;;;;;;;;4402959;29;20137;-80
2022/05/16 07:18:22;;;;;;;3.93;1.23;;;;;;;;;;4403572;29;20513;-80
2022/05/16 07:20:33;;;;;;;;;;;;;;;;;;4403380;29;21005;-80
2022/05/16 07:22:45;;;;;;;3.53;1.40;;;;;;;;;;4407725;29;19966;-81
2022/05/16 07:24:57;;;;;;;4.45;1.55;;;;;;;;;;4395336;29;20045;-80
2022/05/16 07:29:37;;;;;;;3.55;1.48;;;;;;;;;;4403978;29;20088;-80
2022/05/16 07:31:51;;;;;;;;;;;;;;;;;;4402990;29;21042;-81
2022/05/16 07:34:01;;;;;;;4.43;1.50;;;;;;;;;;4402614;29;19918;-80
2022/05/16 07:36:12;;;;;;;3.10;1.37;;;;;;;;;;4403867;28;20040;-80
2022/05/16 07:38:25;;;;;;;2.90;1.40;;;;;;;;;;4404597;29;20500;-81
2022/05/16 07:40:37;;;;;;;2.65;1.20;;;;;;;;;;4405188;29;20037;-81
2022/05/16 07:42:48;;;;;;;4.05;1.50;;;;;;;;;;4404369;29;20040;-80
2022/05/16 07:44:58;;;;;;;2.80;1.25;;;;;;;;;;4403885;29;20490;-80
2022/05/16 07:47:09;;;;;;;4.57;1.60;;;;;;;;;;4403521;28;20767;-75
2022/05/16 07:49:21;;;;;;;3.40;1.43;;;;;;;;;;4402993;29;20036;-75
2022/05/16 07:51:31;;;;;;;2.55;1.25;;;;;;;;;;4403476;29;20135;-74
2022/05/16 07:53:42;;;;;;;5.37;1.83;;;;;;;;;;4405517;29;20044;-75
2022/05/16 07:55:54;;;;;;;4.47;1.07;;;;;;;;;;4404085;29;20549;-76
2022/05/16 07:58:05;;;;;;;3.20;1.30;;;;;;;;;;4405469;29;20205;-75
2022/05/16 08:00:17;;;;;;;3.10;1.23;;;;;;;;;;4413790;29;20138;-75
2022/05/16 08:02:27;;;;;;;3.05;1.35;;;;;;;;;;4413226;29;20118;-74
2022/05/16 08:04:38;;;;;;;6.83;1.97;;;;;;;;;;4404998;29;20049;-75
2022/05/16 08:06:49;;;;;;;4.37;1.40;;;;;;;;;;4405655;28;20120;-75
2022/05/16 08:11:37;;;;;;;4.03;1.40;;;;;;;;;;4420165;28;20135;-74
2022/05/16 08:13:48;;;;;;;4.22;1.80;;;;;;;;;;4406168;28;20045;-75
2022/05/16 08:15:58;;;;;;;2.92;1.38;;;;;;;;;;4412512;29;20668;-75
2022/05/16 08:18:11;;;;;;;3.97;1.40;;;;;;;;;;4388533;29;20103;-74
2022/05/16 08:20:22;;;;;;;3.15;1.27;;;;;;;;;;4413432;29;20783;-74
2022/05/16 08:22:33;;;;;;;1.90;1.17;;;;;;;;;;4404927;29;20053;-74
2022/05/16 08:24:45;;;;;;;3.53;1.40;;;;;;;;;;4413205;29;20028;-75
2022/05/16 08:26:56;;;;;;;2.90;1.17;;;;;;;;;;4405352;29;20049;-75
2022/05/16 08:29:06;;;;;;;1.87;1.30;;;;;;;;;;4387545;29;20484;-74
2022/05/16 08:31:17;;;;;;;4.00;1.80;;;;;;;;;;4407014;29;20037;-74
2022/05/16 08:33:28;;;;;;;4.32;1.60;;;;;;;;;;4400888;29;20040;-75
2022/05/16 08:35:39;;;;;;;3.28;1.48;;;;;;;;;;4404154;29;20040;-75
2022/05/16 08:40:20;;;;;;;3.33;1.40;;;;;;;;;;4404852;29;20659;-74
2022/05/16 08:42:42;;;;;;;3.95;1.35;;;;;;;;;;4417281;28;20071;-75
2022/05/16 08:45:00;;;;;;;2.95;1.40;;;;;;;;;;4406692;29;20076;-75
2022/05/16 08:47:13;;;;;;;3.67;1.63;;;;;;;;;;4403695;29;20051;-76
2022/05/16 08:49:39;;;;;;;3.42;1.25;;;;;;;;;;4403645;29;20588;-76
2022/05/16 08:51:55;;;;;;;3.97;1.40;;;;;;;;;;4406293;28;20032;-76
2022/05/16 08:54:11;;;;;;;6.65;1.50;;;;;;;;;;4412180;29;20746;-75
2022/05/16 08:56:26;;;;;;;4.00;1.40;;;;;;;;;;4388982;29;20033;-75
2022/05/16 08:58:43;;;;;;;4.15;1.30;;;;;;;;;;4405188;29;20060;-75
2022/05/16 09:00:57;;;;;;;3.22;1.33;;;;;;;;;;4401995;29;20044;-75
2022/05/16 09:03:13;;;;;;;2.45;1.25;;;;;;;;;;4407440;28;20032;-75
2022/05/16 09:05:28;;;;;;;3.63;1.40;;;;;;;;;;4411278;29;20071;-75
2022/05/16 09:07:46;;;;;;;4.28;1.50;;;;;;;;;;4410690;29;20048;-75
2022/05/16 09:10:05;;;;;;;5.78;1.40;;;;;;;;;;4403854;29;20355;-75
2022/05/16 09:12:18;;;;;;;4.05;1.30;;;;;;;;;;4403796;29;20047;-75
2022/05/16 09:14:52;;;;;;;3.25;1.30;;;;;;;;;;4418389;28;20092;-75
2022/05/16 09:17:07;;;;;;;3.22;1.27;;;;;;;;;;4398182;29;20051;-75
2022/05/16 09:19:36;;;;;;;5.07;1.38;;;;;;;;;;4402988;29;20147;-75
2022/05/16 09:22:24;;;;;;;4.00;1.50;;;;;;;;;;4418436;28;20047;-75
2022/05/16 09:24:38;;;;;;;3.42;1.35;;;;;;;;;;4402241;29;20343;-75
2022/05/16 09:27:01;;;;;;;3.08;1.40;;;;;;;;;;4396038;29;20152;-75
2022/05/16 09:29:29;;;;;;;3.53;1.33;;;;;;;;;;4403287;29;20100;-76
2022/05/16 09:31:43;;;;;;;3.60;1.63;;;;;;;;;;4403182;29;20032;-75
2022/05/16 09:33:56;;;;;;;3.00;1.50;;;;;;;;;;4401742;29;21304;-75
2022/05/16 09:36:10;;;;;;;6.07;1.80;;;;;;;;;;4403099;29;20095;-75
2022/05/16 09:38:22;;;;;;;4.03;1.48;;;;;;;;;;4402279;29;20411;-75
2022/05/16 09:40:38;;;;;;;2.22;1.30;;;;;;;;;;4404999;29;21082;-76
2022/05/16 09:42:50;;;;;;;2.80;1.40;;;;;;;;;;4403484;29;20040;-75
2022/05/16 09:45:04;;;;;;;5.45;1.48;;;;;;;;;;4404108;29;20033;-75
2022/05/16 09:47:23;;;;;;;4.35;1.38;;;;;;;;;;4390771;29;20528;-75
2022/05/16 09:49:34;;;;;;;3.75;1.80;;;;;;;;;;4404052;28;20040;-75
2022/05/16 09:51:56;;;;;;;4.33;1.70;;;;;;;;;;4404840;28;20036;-75
2022/05/16 09:54:37;;;;;;;3.30;1.63;;;;;;;;;;4403331;29;20050;-75
2022/05/16 09:57:02;;;;;;;3.45;1.65;;;;;;;;;;4397163;29;20372;-74
2022/05/16 09:59:14;;;;;;;5.80;1.70;;;;;;;;;;4403085;29;20739;-73
2022/05/16 10:01:32;;;;;;;4.28;2.00;;;;;;;;;;4405831;29;20743;-72
2022/05/16 10:03:44;;;;;;;5.38;1.90;;;;;;;;;;4402453;29;20592;-72
2022/05/16 10:05:57;;;;;;;5.10;1.63;;;;;;;;;;4405327;29;20041;-71
2022/05/16 10:08:14;;;;;;;3.65;1.70;;;;;;;;;;4389511;29;20048;-71
2022/05/16 10:10:29;;;;;;;3.95;1.73;;;;;;;;;;4402346;29;20064;-71
2022/05/16 10:12:40;;;;;;;2.70;1.70;;;;;;;;;;4404990;29;20047;-71
2022/05/16 10:14:51;;;;;;;5.00;1.73;;;;;;;;;;4404813;29;20051;-71
2022/05/16 10:17:03;;;;;;;4.20;1.60;;;;;;;;;;4401639;29;20036;-71
2022/05/16 10:19:19;;;;;;;4.35;1.73;;;;;;;;;;4405097;29;20108;-71
2022/05/16 10:21:35;;;;;;;4.38;1.67;;;;;;;;;;4404198;28;20536;-71
2022/05/16 10:23:46;;;;;;;4.40;1.90;;;;;;;;;;4411541;29;20036;-71
2022/05/16 10:26:00;;;;;;;3.47;1.60;;;;;;;;;;4403487;29;30878;-72
2022/05/16 10:28:41;;;;;;;4.55;1.75;;;;;;;;;;4417894;28;20618;-71
2022/05/16 10:33:25;;;;;;;4.03;1.55;;;;;;;;;;4402931;29;20037;-71
2022/05/16 10:35:40;;;;;;;5.38;2.10;;;;;;;;;;4403859;29;20119;-71
2022/05/16 10:37:53;;;;;;;3.78;1.90;;;;;;;;;;4394752;29;20032;-71
2022/05/16 10:40:08;;;;;;;4.35;1.80;;;;;;;;;;4395080;29;20593;-71
2022/05/16 10:42:46;;;;;;;3.88;1.95;;;;;;;;;;4410802;29;20794;-71
2022/05/16 10:45:04;;;;;;;4.82;1.70;;;;;;;;;;4402397;29;20184;-71
2022/05/16 10:47:24;;;;;;;3.60;1.85;;;;;;;;;;4410518;29;20529;-71
2022/05/16 10:49:39;;;;;;;2.92;1.52;;;;;;;;;;4404042;29;20553;-70
2022/05/16 10:52:12;;;;;;;3.50;1.50;;;;;;;;;;4418721;23;20040;-67
2022/05/16 10:54:25;;;;;;;2.92;1.40;;;;;;;;;;4427544;28;20349;-70
2022/05/16 10:56:54;;;;;;;4.07;1.73;;;;;;;;;;4422386;28;20602;-69
2022/05/16 10:59:14;;;;;;;2.22;1.52;;;;;;;;;;4442012;28;21024;-69
2022/05/16 11:01:52;;;;;;;3.08;1.60;;;;;;;;;;4426968;28;20036;-69
2022/05/16 11:04:41;;;;;;;4.35;1.88;;;;;;;;;;4410550;28;20036;-69
2022/05/16 11:07:05;;;;;;;2.63;1.52;;;;;;;;;;4380578;29;20056;-69
2022/05/16 11:09:29;;;;;;;3.50;1.98;;;;;;;;;;4411619;29;20553;-69
2022/05/16 11:12:04;;;;;;;4.55;1.70;;;;;;;;;;4410870;29;20036;-69
2022/05/16 11:14:46;;;;;;;3.75;1.67;;;;;;;;;;4407624;28;20091;-69
2022/05/16 11:17:24;;;;;;;2.85;1.70;;;;;;;;;;4411465;29;20342;-69
2022/05/16 11:19:53;;;;;;;3.97;1.80;;;;;;;;;;4412185;28;20042;-70
2022/05/16 11:22:14;;;;;;;3.13;1.58;;;;;;;;;;4411929;29;20032;-69
2022/05/16 11:24:34;;;;;;;;;;;;;;;;;;4406476;28;20036;-69
2022/05/16 11:27:00;;;;;;;3.33;1.90;;;;;;;;;;4412771;28;19933;-69
2022/05/16 11:29:33;;;;;;;2.75;1.60;;;;;;;;;;4414945;29;20035;-70
2022/05/16 11:32:18;;;;;;;3.97;1.60;;;;;;;;;;4413729;29;20059;-70
2022/05/16 11:34:52;;;;;;;2.83;1.70;;;;;;;;;;4407428;28;20135;-70
2022/05/16 11:37:27;;;;;;;3.55;1.90;;;;;;;;;;4407849;28;20573;-70
2022/05/16 11:39:52;;;;;;;3.70;1.67;;;;;;;;;;4427981;28;20047;-70
2022/05/16 11:42:26;;;;;;;3.38;1.90;;;;;;;;;;4412034;28;20039;-71
2022/05/16 11:44:57;;;;;;;4.85;1.85;;;;;;;;;;4414957;28;20042;-70
2022/05/16 11:47:21;;;;;;;2.58;1.50;;;;;;;;;;4413549;29;20052;-69
2022/05/16 11:49:43;;;;;;;4.22;2.00;;;;;;;;;;4412414;29;20663;-72
2022/05/16 11:52:08;;;;;;;3.30;1.48;;;;;;;;;;4411942;29;20040;-71
2022/05/16 11:54:23;;;;;;;5.10;1.67;;;;;;;;;;4397374;29;20037;-71
2022/05/16 12:02:08;;;;;;;3.35;1.75;;;;;;;;;;4413610;28;20258;-71
2022/05/16 12:04:24;;;;;;;3.08;1.40;;;;;;;;;;4413442;29;20044;-71
2022/05/16 12:06:39;;;;;;;3.13;1.40;;;;;;;;;;4412961;29;20036;-71
2022/05/16 12:08:50;;;;;;;4.28;1.90;;;;;;;;;;4405036;29;20028;-71
2022/05/16 12:11:03;;;;;;;2.93;1.40;;;;;;;;;;4411961;29;20032;-72
2022/05/16 12:13:37;;;;;;;4.63;1.80;;;;;;;;;;4412041;28;20052;-71
2022/05/16 12:16:14;;;;;;;3.95;1.45;;;;;;;;;;4413460;29;20075;-72
2022/05/16 12:18:38;;;;;;;5.30;1.58;;;;;;;;;;4428279;28;20039;-71
2022/05/16 12:20:50;;;;;;;3.25;1.52;;;;;;;;;;4413469;28;20146;-72
2022/05/16 12:23:01;;;;;;;3.88;1.63;;;;;;;;;;4413066;29;20040;-72
2022/05/16 12:25:24;;;;;;;2.70;1.30;;;;;;;;;;4412003;29;20024;-72
2022/05/16 12:27:38;;;;;;;2.95;1.40;;;;;;;;;;4413098;29;20588;-72
2022/05/16 12:29:52;;;;;;;4.00;1.95;;;;;;;;;;4413201;29;20068;-71
2022/05/16 12:32:03;;;;;;;4.03;1.90;;;;;;;;;;4397648;29;20033;-72
2022/05/16 12:34:40;;;;;;;2.17;1.50;;;;;;;;;;4413440;29;20036;-72
2022/05/16 12:36:51;;;;;;;4.05;1.80;;;;;;;;;;4413675;28;20623;-72
2022/05/16 12:39:45;;;;;;;3.13;1.73;;;;;;;;;;4412457;28;20063;-72
2022/05/16 12:42:07;;;;;;;2.25;1.45;;;;;;;;;;4406355;29;20041;-72
2022/05/16 12:44:22;;;;;;;3.90;1.60;;;;;;;;;;4414001;29;20044;-72
2022/05/16 12:46:42;;;;;;;2.95;1.70;;;;;;;;;;4412345;29;20052;-72
2022/05/16 12:49:04;;;;;;;3.10;1.30;;;;;;;;;;4413968;28;20043;-72
2022/05/16 12:51:22;;;;;;;4.22;1.67;;;;;;;;;;4413547;29;21061;-72
2022/05/16 12:53:46;;;;;;;2.90;1.50;;;;;;;;;;4407988;28;20062;-72
2022/05/16 12:56:07;;;;;;;3.05;1.60;;;;;;;;;;4396377;29;20177;-72
2022/05/16 12:58:46;;;;;;;3.15;1.48;;;;;;;;;;4412731;29;20063;-72
2022/05/16 13:01:06;;;;;;;3.28;1.60;;;;;;;;;;4412975;29;20040;-72
2022/05/16 13:03:46;;;;;;;2.45;1.63;;;;;;;;;;4413014;29;20036;-73
2022/05/16 13:06:02;;;;;;;2.63;1.35;;;;;;;;;;4413497;29;20044;-72
2022/05/16 13:08:31;;;;;;;3.33;1.60;;;;;;;;;;4406197;29;20032;-73
2022/05/16 13:11:02;;;;;;;2.65;1.50;;;;;;;;;;4411388;28;20051;-72
2022/05/16 13:13:45;;;;;;;2.55;1.40;;;;;;;;;;4412052;29;20045;-72
2022/05/16 13:23:25;;;;;;;3.37;1.80;;;;;;;;;;4410448;29;20655;-73
2022/05/16 13:29:21;;;;;;;3.47;1.90;;;;;;;;;;4412336;29;20143;-72
2022/05/16 13:30:39;;;;;;;2.22;1.40;;;;;;;;;;4426433;28;20023;-72
2022/05/16 13:32:49;;;;;;;2.25;1.55;;;;;;;;;;4405150;29;20616;-72
2022/05/16 13:35:05;;;;;;;3.53;1.30;;;;;;;;;;4412607;28;20040;-72
2022/05/16 13:37:25;;;;;;;2.67;1.58;;;;;;;;;;4411786;29;20649;-72
2022/05/16 13:39:52;;;;;;;5.38;1.60;;;;;;;;;;4408942;28;20442;-73
2022/05/16 13:42:04;;;;;;;2.25;1.63;;;;;;;;;;4410740;28;20040;-73
2022/05/16 13:44:14;;;;;;;3.92;1.58;;;;;;;;;;4412803;28;20403;-72
2022/05/16 13:46:27;;;;;;;3.30;1.67;;;;;;;;;;4411746;28;20119;-72
2022/05/16 13:48:37;;;;;;;3.03;1.60;;;;;;;;;;4412586;29;20111;-73
2022/05/16 13:50:48;;;;;;;4.80;2.00;;;;;;;;;;4410353;29;28081;-72
2022/05/16 13:52:58;;;;;;;4.07;1.67;;;;;;;;;;4409415;29;20052;-73
2022/05/16 13:55:11;;;;;;;4.20;1.83;;;;;;;;;;4412260;28;20630;-73
2022/05/16 13:57:23;;;;;;;3.55;1.70;;;;;;;;;;4412300;29;21224;-72
2022/05/16 13:59:35;;;;;;;2.90;1.40;;;;;;;;;;4388486;29;20160;-73
2022/05/16 14:05:32;;;;;;;4.35;1.55;;;;;;;;;;4409758;29;20040;-73
2022/05/16 14:07:43;;;;;;;3.10;1.70;;;;;;;;;;4405515;28;20054;-72
2022/05/16 14:10:02;;;;;;;2.43;1.53;;;;;;;;;;4426393;28;35613;-73
2022/05/16 14:12:17;;;;;;;3.10;1.60;;;;;;;;;;4406820;29;20051;-73
2022/05/16 14:14:29;;;;;;;2.42;1.48;;;;;;;;;;4411969;28;20036;-72
2022/05/16 14:16:41;;;;;;;4.15;1.83;;;;;;;;;;4412102;28;20024;-73
2022/05/16 14:19:10;;;;;;;3.83;1.83;;;;;;;;;;4404728;28;20115;-72
2022/05/16 14:21:24;;;;;;;4.68;1.75;;;;;;;;;;4411370;29;20032;-73
2022/05/16 14:23:41;;;;;;;5.35;1.95;;;;;;;;;;4411733;29;20177;-73